Kilkenny, Minnesota
Current Conditions -  °F | °C
As of 2:14 AM on Thursday 29 Jan 2015 (Local Time) from KFBL Reporting Station
Haze Haze  
Wind Chill: 20°   Ceiling: 700
Heat Index: 30°   Visibility: 2.5mi
Dew Point: 30°   Wind: 14mph
Humidity: 100%   Direction: 310°NW
Pressure: 29.9"   Gusts: 17mph
Location:  44.31°N, 93.57°W
Report Text: KFBL 290814Z AUTO 31012G15KT 2 1/2SM BR OVC007 M01/M01 A2990 RMK AO2
Loading
Personal Weather Stations






























Interactive Weather Map New forecast layout! Learn more

10-Day Weather Forecast

Advertisements
Track Severe Weather on mobile